createdAt,value
2023-05-06T00:02:31.470Z,27.20
2023-05-06T00:06:33.425Z,26.00
2023-05-06T00:10:35.059Z,28.27
2023-05-06T00:14:36.700Z,31.67
2023-05-06T00:18:38.402Z,27.25
2023-05-06T00:22:40.194Z,23.75
2023-05-06T00:26:41.807Z,27.95
2023-05-06T00:30:43.460Z,27.83
2023-05-06T00:34:45.085Z,30.92
2023-05-06T00:38:46.748Z,27.37
2023-05-06T00:42:48.359Z,31.45
2023-05-06T00:46:50.036Z,28.38
2023-05-06T00:50:51.911Z,28.50
2023-05-06T00:54:53.953Z,25.45
2023-05-06T00:58:55.653Z,35.00
2023-05-06T01:02:57.371Z,30.98
2023-05-06T01:07:07.609Z,33.58
2023-05-06T01:11:19.483Z,30.15
2023-05-06T01:15:34.203Z,32.55
2023-05-06T01:19:42.028Z,25.45
2023-05-06T01:23:53.638Z,35.00
2023-05-06T01:27:55.275Z,42.35
2023-05-06T01:32:04.872Z,39.10
2023-05-06T01:36:25.086Z,36.15
2023-05-06T01:40:30.087Z,40.88
2023-05-06T01:44:33.790Z,45.17
2023-05-06T01:48:38.182Z,34.05
2023-05-06T01:52:39.907Z,34.03
2023-05-06T01:56:41.621Z,36.38
2023-05-06T02:00:43.309Z,40.35
2023-05-06T02:04:45.819Z,38.75
2023-05-06T02:08:48.492Z,32.85
2023-05-06T02:12:50.400Z,31.77
2023-05-06T02:16:52.075Z,32.80
2023-05-06T02:20:53.730Z,30.50
2023-05-06T02:24:55.360Z,26.73
2023-05-06T02:28:57.040Z,31.33
2023-05-06T02:32:58.677Z,26.40
2023-05-06T02:37:00.307Z,35.78
2023-05-06T02:41:02.123Z,34.42
2023-05-06T02:45:04.178Z,30.62
2023-05-06T02:49:05.841Z,31.50
2023-05-06T02:53:08.808Z,37.92
2023-05-06T02:57:10.473Z,32.95
2023-05-06T03:01:12.165Z,33.22
2023-05-06T03:05:13.875Z,32.88
2023-05-06T03:09:15.639Z,33.88
2023-05-06T03:13:17.326Z,30.45
2023-05-06T03:17:19.031Z,29.10
2023-05-06T03:21:20.671Z,25.55
2023-05-06T03:25:22.365Z,27.87
2023-05-06T03:29:24.524Z,27.35
2023-05-06T03:33:26.578Z,30.67
2023-05-06T03:37:29.104Z,27.33
2023-05-06T03:41:30.831Z,28.77
2023-05-06T03:45:32.439Z,26.60
2023-05-06T03:49:34.135Z,26.10
2023-05-06T03:53:35.858Z,26.98
2023-05-06T03:57:37.553Z,28.30
2023-05-06T04:01:39.220Z,26.52
2023-05-06T04:05:40.896Z,29.37
2023-05-06T04:09:42.630Z,26.08
2023-05-06T04:13:44.388Z,33.97
2023-05-06T04:17:46.361Z,30.62
2023-05-06T04:21:48.122Z,27.70
2023-05-06T04:25:49.790Z,29.30
2023-05-06T04:29:51.741Z,30.42
2023-05-06T04:33:53.471Z,25.35
2023-05-06T04:37:56.584Z,28.60
2023-05-06T04:41:58.320Z,30.48
2023-05-06T04:46:00.384Z,26.55
2023-05-06T04:50:02.207Z,22.20
2023-05-06T04:54:03.953Z,23.40
2023-05-06T04:58:05.697Z,22.67
2023-05-06T05:02:07.422Z,17.42
2023-05-06T05:06:09.896Z,18.75
2023-05-06T05:10:11.961Z,19.60
2023-05-06T05:14:13.613Z,19.35
2023-05-06T05:18:15.488Z,17.40
2023-05-06T05:22:17.151Z,22.00
2023-05-06T05:26:18.894Z,19.58
2023-05-06T05:30:20.698Z,25.65
2023-05-06T05:34:22.859Z,27.25
2023-05-06T05:38:24.586Z,25.92
2023-05-06T05:42:26.256Z,36.08
2023-05-06T05:46:28.063Z,39.45
2023-05-06T05:50:29.779Z,39.33
2023-05-06T05:54:31.458Z,40.50
2023-05-06T05:58:33.115Z,41.35
2023-05-06T06:02:34.934Z,40.83
2023-05-06T06:06:36.755Z,39.33
2023-05-06T06:10:38.346Z,37.53
2023-05-06T06:14:40.156Z,36.10
2023-05-06T06:18:41.778Z,35.53
2023-05-06T06:22:43.411Z,35.30
2023-05-06T06:26:45.106Z,28.65
2023-05-06T06:30:46.757Z,28.23
2023-05-06T06:34:48.731Z,29.37
2023-05-06T06:38:50.451Z,26.15
2023-05-06T06:42:52.386Z,23.15
2023-05-06T06:46:54.092Z,22.90
2023-05-06T06:50:55.744Z,17.23
2023-05-06T06:54:57.566Z,15.77
2023-05-06T06:58:59.230Z,13.57
2023-05-06T07:03:01.006Z,13.23
2023-05-06T07:07:02.773Z,16.35
2023-05-06T07:11:04.431Z,12.70
2023-05-06T07:15:19.436Z,11.25
2023-05-06T07:19:21.290Z,10.88
2023-05-06T07:23:23.022Z,12.18
2023-05-06T07:27:24.721Z,9.15
2023-05-06T07:31:26.715Z,6.82
2023-05-06T07:35:28.407Z,8.57
2023-05-06T07:39:30.833Z,7.32
2023-05-06T07:43:32.429Z,5.87
2023-05-06T07:47:35.597Z,7.78
2023-05-06T07:51:37.350Z,8.02
2023-05-06T07:55:38.970Z,6.82
2023-05-06T07:59:40.580Z,9.27
2023-05-06T08:03:42.475Z,5.50
2023-05-06T08:07:44.414Z,7.82
2023-05-06T08:11:46.056Z,9.35
2023-05-06T08:15:47.723Z,7.05
2023-05-06T08:19:49.597Z,6.25
2023-05-06T08:23:51.475Z,5.87
2023-05-06T08:27:53.125Z,7.93
2023-05-06T08:31:54.805Z,3.80
2023-05-06T08:35:58.385Z,4.53
2023-05-06T08:40:00.937Z,3.90
2023-05-06T08:44:05.016Z,4.85
2023-05-06T08:48:06.733Z,5.22
2023-05-06T08:52:08.981Z,3.42
2023-05-06T08:56:13.522Z,3.58
2023-05-06T09:00:15.619Z,4.15
2023-05-06T09:04:18.968Z,4.32
2023-05-06T09:08:20.840Z,3.00
2023-05-06T09:12:24.673Z,5.82
2023-05-06T09:16:28.388Z,7.68
2023-05-06T09:20:36.053Z,3.10
2023-05-06T09:24:37.850Z,4.25
2023-05-06T09:28:44.808Z,3.33
2023-05-06T09:32:49.619Z,2.65
2023-05-06T09:36:53.407Z,3.42
2023-05-06T09:40:55.550Z,6.10
2023-05-06T09:45:01.574Z,3.28
2023-05-06T09:49:03.985Z,4.53
2023-05-06T09:53:06.837Z,3.28
2023-05-06T09:57:10.370Z,3.72
2023-05-06T10:01:15.085Z,4.72
2023-05-06T10:09:24.210Z,5.45
2023-05-06T10:13:26.222Z,3.97
2023-05-06T10:17:30.914Z,3.08
2023-05-06T10:21:35.864Z,5.80
2023-05-06T10:25:39.951Z,4.07
2023-05-06T10:29:43.547Z,3.50
2023-05-06T10:33:48.990Z,5.00
2023-05-06T10:37:51.558Z,4.57
2023-05-06T10:41:53.411Z,4.55
2023-05-06T10:46:02.772Z,3.65
2023-05-06T10:50:24.112Z,3.35
2023-05-06T10:54:26.057Z,4.28
2023-05-06T10:58:27.732Z,4.55
2023-05-06T11:02:30.884Z,2.37
2023-05-06T11:06:34.487Z,2.35
2023-05-06T11:10:36.812Z,5.03
2023-05-06T11:14:39.042Z,4.43
2023-05-06T11:18:42.270Z,4.55
2023-05-06T11:22:43.925Z,4.43
2023-05-06T11:26:47.779Z,2.10
2023-05-06T11:30:55.038Z,2.37
2023-05-06T11:34:56.967Z,4.53
2023-05-06T11:39:05.284Z,2.92
2023-05-06T11:43:14.815Z,4.28
2023-05-06T11:47:16.446Z,3.05
2023-05-06T11:51:23.065Z,4.65
2023-05-06T11:55:25.446Z,2.72
2023-05-06T11:59:38.648Z,3.28
2023-05-06T12:03:40.597Z,3.62
2023-05-06T12:07:43.838Z,2.40
2023-05-06T12:11:45.620Z,2.05
2023-05-06T12:15:49.703Z,2.80
2023-05-06T12:19:51.902Z,2.00
2023-05-06T12:23:59.191Z,4.80
2023-05-06T12:28:01.005Z,2.30
2023-05-06T12:32:10.388Z,2.58
2023-05-06T12:36:12.400Z,3.15
2023-05-06T12:40:17.985Z,2.97
2023-05-06T12:44:39.009Z,4.03
2023-05-06T12:48:55.454Z,2.85
2023-05-06T12:52:57.386Z,4.75
2023-05-06T12:56:59.076Z,1.87
2023-05-06T13:01:00.984Z,2.72
2023-05-06T13:05:02.921Z,4.35
2023-05-06T13:09:04.752Z,2.47
2023-05-06T13:13:06.615Z,3.17
2023-05-06T13:17:08.689Z,2.05
2023-05-06T13:21:10.421Z,3.12
2023-05-06T13:25:13.404Z,3.42
2023-05-06T13:29:16.314Z,4.78
2023-05-06T13:33:17.958Z,2.62
2023-05-06T13:37:19.647Z,2.15
2023-05-06T13:41:22.865Z,3.97
2023-05-06T13:45:24.554Z,3.62
2023-05-06T13:49:26.382Z,2.62
2023-05-06T13:53:28.062Z,4.93
2023-05-06T13:57:29.682Z,5.37
2023-05-06T14:01:31.365Z,2.45
2023-05-06T14:05:33.076Z,2.65
2023-05-06T14:09:35.528Z,4.37
2023-05-06T14:13:37.415Z,2.67
2023-05-06T14:17:39.344Z,4.62
2023-05-06T14:21:41.142Z,2.80
2023-05-06T14:25:42.808Z,3.80
2023-05-06T14:29:46.004Z,2.53
2023-05-06T14:33:47.622Z,3.35
2023-05-06T14:37:49.359Z,2.92
2023-05-06T14:41:51.224Z,3.05
2023-05-06T14:45:53.050Z,3.25
2023-05-06T14:49:55.037Z,3.30
2023-05-06T14:53:56.760Z,2.15
2023-05-06T14:57:58.468Z,3.92
2023-05-06T15:02:00.246Z,2.35
2023-05-06T15:06:01.965Z,4.87
2023-05-06T15:10:04.093Z,3.08
2023-05-06T15:14:05.922Z,5.12
2023-05-06T15:18:08.054Z,4.20
2023-05-06T15:22:09.801Z,2.83
2023-05-06T15:26:11.436Z,6.35
2023-05-06T15:30:13.391Z,5.68
2023-05-06T15:34:16.124Z,2.78
2023-05-06T15:38:17.809Z,2.47
2023-05-06T15:42:19.423Z,3.25
2023-05-06T15:46:21.266Z,2.83
2023-05-06T15:50:32.873Z,2.30
2023-05-06T15:54:38.563Z,1.30
2023-05-06T15:58:42.323Z,2.42
2023-05-06T16:02:44.034Z,3.00
2023-05-06T16:06:45.852Z,4.25
2023-05-06T16:10:47.550Z,5.32
2023-05-06T16:14:49.203Z,5.25
2023-05-06T16:18:50.864Z,3.37
2023-05-06T16:22:52.905Z,2.60
2023-05-06T16:26:55.697Z,2.80
2023-05-06T16:30:57.366Z,2.53
2023-05-06T16:34:59.315Z,2.35
2023-05-06T16:39:01.142Z,6.25
2023-05-06T16:43:02.959Z,3.10
2023-05-06T16:47:04.667Z,3.37
2023-05-06T16:51:06.541Z,3.72
2023-05-06T16:55:08.689Z,3.22
2023-05-06T16:59:10.337Z,1.87
2023-05-06T17:03:12.145Z,2.67
2023-05-06T17:07:13.850Z,3.92
2023-05-06T17:11:15.486Z,4.57
2023-05-06T17:15:17.216Z,4.80
2023-05-06T17:19:18.918Z,4.12
2023-05-06T17:23:20.609Z,2.22
2023-05-06T17:27:22.346Z,4.43
2023-05-06T17:31:24.052Z,2.65
2023-05-06T17:35:26.094Z,2.60
2023-05-06T17:39:27.915Z,1.42
2023-05-06T17:43:29.620Z,5.15
2023-05-06T17:47:31.375Z,4.03
2023-05-06T17:51:33.028Z,4.18
2023-05-06T17:55:34.668Z,4.65
2023-05-06T17:59:37.039Z,3.47
2023-05-06T18:03:39.932Z,1.95
2023-05-06T18:07:42.112Z,2.97
2023-05-06T18:11:44.170Z,5.85
2023-05-06T18:15:45.886Z,2.10
2023-05-06T18:19:47.541Z,3.80
2023-05-06T18:23:51.426Z,2.95
2023-05-06T18:27:55.209Z,3.33
2023-05-06T18:31:57.454Z,3.35
2023-05-06T18:35:59.262Z,1.87
2023-05-06T18:40:00.946Z,3.40
2023-05-06T18:44:04.153Z,2.97
2023-05-06T18:48:05.913Z,1.85
2023-05-06T18:52:07.612Z,3.67
2023-05-06T18:56:09.790Z,4.37
2023-05-06T19:00:13.489Z,2.12
2023-05-06T19:04:15.295Z,2.97
2023-05-06T19:08:17.036Z,3.33
2023-05-06T19:12:18.742Z,5.95
2023-05-06T19:16:20.393Z,6.22
2023-05-06T19:20:22.186Z,3.50
2023-05-06T19:24:23.941Z,6.25
2023-05-06T19:28:25.630Z,4.68
2023-05-06T19:32:27.309Z,4.55
2023-05-06T19:36:29.000Z,4.97
2023-05-06T19:40:30.958Z,7.53
2023-05-06T19:44:35.812Z,4.75
2023-05-06T19:48:38.856Z,6.15
2023-05-06T19:52:40.767Z,4.78
2023-05-06T19:56:43.794Z,4.25
2023-05-06T20:00:45.722Z,6.82
2023-05-06T20:04:47.364Z,3.37
2023-05-06T20:08:48.996Z,5.37
2023-05-06T20:12:50.744Z,5.03
2023-05-06T20:16:52.397Z,4.22
2023-05-06T20:20:54.054Z,3.67
2023-05-06T20:25:15.908Z,7.22
2023-05-06T20:29:17.957Z,6.85
2023-05-06T20:33:19.567Z,3.42
2023-05-06T20:37:21.288Z,3.90
2023-05-06T20:41:22.921Z,5.25
2023-05-06T20:45:24.660Z,6.22
2023-05-06T20:49:26.340Z,5.15
2023-05-06T20:53:27.953Z,4.60
2023-05-06T20:57:29.628Z,7.70
2023-05-06T21:01:31.945Z,4.32
2023-05-06T21:05:34.416Z,10.80
2023-05-06T21:09:36.249Z,7.00
2023-05-06T21:13:38.586Z,2.87
2023-05-06T21:17:40.360Z,7.30
2023-05-06T21:21:42.336Z,3.22
2023-05-06T21:25:44.036Z,4.50
2023-05-06T21:29:45.647Z,4.82
2023-05-06T21:33:48.290Z,5.60
2023-05-06T21:37:50.704Z,6.65
2023-05-06T21:41:52.486Z,5.25
2023-05-06T21:45:54.207Z,5.30
2023-05-06T21:49:55.938Z,4.78
2023-05-06T21:53:57.668Z,5.25
2023-05-06T21:57:59.386Z,7.35
2023-05-06T22:02:01.083Z,3.45
2023-05-06T22:06:06.113Z,6.75
2023-05-06T22:10:08.075Z,3.35
2023-05-06T22:14:09.755Z,3.78
2023-05-06T22:18:11.544Z,7.65
2023-05-06T22:22:13.211Z,5.28
2023-05-06T22:26:14.890Z,4.80
2023-05-06T22:30:17.042Z,6.62
2023-05-06T22:34:18.646Z,5.78
2023-05-06T22:38:20.428Z,4.15
2023-05-06T22:42:23.859Z,5.60
2023-05-06T22:46:25.823Z,5.20
2023-05-06T22:50:28.003Z,5.57
2023-05-06T22:54:29.687Z,5.70
2023-05-06T22:58:31.401Z,3.95
2023-05-06T23:02:33.088Z,3.05
2023-05-06T23:06:34.836Z,5.72
2023-05-06T23:10:36.497Z,5.80
2023-05-06T23:14:38.229Z,3.70
2023-05-06T23:18:40.264Z,3.70
2023-05-06T23:22:41.973Z,6.93
2023-05-06T23:26:43.646Z,3.10
2023-05-06T23:30:46.145Z,4.05
2023-05-06T23:34:48.986Z,5.00
2023-05-06T23:38:50.754Z,5.32
2023-05-06T23:42:52.458Z,3.60
2023-05-06T23:46:54.260Z,7.05
2023-05-06T23:50:56.106Z,4.87
2023-05-06T23:54:57.735Z,6.70
2023-05-06T23:58:59.446Z,5.53
